createdAt,value
2018-09-30T00:03:50.365Z,10.02
2018-09-30T00:08:53.443Z,9.98
2018-09-30T00:13:56.512Z,9.93
2018-09-30T00:18:59.755Z,9.89
2018-09-30T00:24:08.594Z,9.87
2018-09-30T00:29:11.707Z,9.81
2018-09-30T00:34:20.367Z,9.83
2018-09-30T00:39:23.826Z,9.78
2018-09-30T00:44:26.935Z,9.73
2018-09-30T00:49:30.061Z,9.66
2018-09-30T00:54:33.140Z,9.64
2018-09-30T00:59:36.315Z,9.60
2018-09-30T01:04:39.444Z,9.49
2018-09-30T01:09:42.643Z,9.51
2018-09-30T01:14:45.705Z,9.54
2018-09-30T01:19:48.775Z,9.49
2018-09-30T01:24:51.818Z,9.51
2018-09-30T01:29:54.868Z,9.47
2018-09-30T01:34:57.928Z,9.46
2018-09-30T01:40:01.012Z,9.42
2018-09-30T01:45:04.160Z,9.44
2018-09-30T01:50:07.291Z,9.46
2018-09-30T01:55:10.358Z,9.44
2018-09-30T02:00:13.648Z,9.34
2018-09-30T02:05:17.321Z,9.18
2018-09-30T02:10:20.398Z,9.06
2018-09-30T02:15:23.467Z,9.10
2018-09-30T02:20:26.535Z,9.10
2018-09-30T02:25:29.619Z,9.07
2018-09-30T02:30:32.724Z,8.93
2018-09-30T02:35:35.779Z,8.86
2018-09-30T02:48:20.725Z,8.69
2018-09-30T02:53:23.833Z,8.89
2018-09-30T02:58:26.876Z,9.01
2018-09-30T03:03:29.955Z,9.09
2018-09-30T03:08:38.966Z,9.14
2018-09-30T03:13:42.394Z,9.16
2018-09-30T03:18:45.817Z,9.17
2018-09-30T03:23:49.270Z,9.09
2018-09-30T03:28:52.717Z,8.92
2018-09-30T03:33:56.142Z,8.76
2018-09-30T03:38:59.524Z,8.65
2018-09-30T03:44:02.902Z,8.54
2018-09-30T03:49:06.554Z,8.54
2018-09-30T03:54:09.957Z,8.74
2018-09-30T03:59:13.397Z,8.89
2018-09-30T04:04:16.724Z,8.86
2018-09-30T04:09:19.820Z,8.73
2018-09-30T04:14:22.916Z,8.18
2018-09-30T04:19:25.991Z,8.58
2018-09-30T04:24:29.080Z,8.46
2018-09-30T04:29:32.147Z,8.45
2018-09-30T04:34:35.283Z,8.36
2018-09-30T04:39:38.348Z,8.31
2018-09-30T04:44:41.420Z,8.29
2018-09-30T04:49:44.528Z,8.21
2018-09-30T04:54:47.607Z,8.16
2018-09-30T04:59:50.686Z,8.03
2018-09-30T05:04:54.190Z,8.00
2018-09-30T05:09:57.351Z,8.08
2018-09-30T05:15:00.757Z,8.14
2018-09-30T05:20:04.600Z,8.17
2018-09-30T05:25:07.787Z,8.19
2018-09-30T05:30:10.851Z,8.21
2018-09-30T05:35:13.939Z,8.18
2018-09-30T05:40:17.056Z,8.22
2018-09-30T05:45:21.386Z,8.29
2018-09-30T05:50:24.514Z,8.28
2018-09-30T05:55:27.631Z,8.21
2018-09-30T06:00:30.732Z,8.28
2018-09-30T06:05:33.897Z,8.45
2018-09-30T06:10:37.006Z,8.62
2018-09-30T06:15:40.089Z,8.78
2018-09-30T06:20:43.209Z,8.91
2018-09-30T06:25:46.366Z,9.06
2018-09-30T06:30:49.456Z,9.18
2018-09-30T06:35:52.567Z,9.38
2018-09-30T06:40:55.640Z,9.53
2018-09-30T06:45:58.793Z,9.63
2018-09-30T06:51:01.974Z,9.78
2018-09-30T06:56:05.087Z,9.88
2018-09-30T07:01:08.219Z,10.01
2018-09-30T07:06:11.540Z,10.16
2018-09-30T07:11:14.780Z,10.34
2018-09-30T07:16:17.891Z,10.51
2018-09-30T07:21:21.133Z,10.72
2018-09-30T07:26:24.267Z,10.92
2018-09-30T07:31:27.388Z,11.18
2018-09-30T07:36:30.492Z,11.48
2018-09-30T07:41:37.158Z,11.80
2018-09-30T07:46:40.309Z,12.07
2018-09-30T07:51:43.397Z,12.32
2018-09-30T07:56:46.541Z,12.56
2018-09-30T08:01:49.684Z,12.81
2018-09-30T08:06:52.808Z,13.07
2018-09-30T08:11:56.241Z,13.27
2018-09-30T08:16:59.321Z,13.53
2018-09-30T08:22:02.443Z,13.81
2018-09-30T08:27:05.651Z,14.08
2018-09-30T08:32:08.780Z,14.33
2018-09-30T08:37:22.156Z,14.56
2018-09-30T08:42:25.231Z,14.75
2018-09-30T08:47:28.403Z,14.91
2018-09-30T08:52:31.404Z,15.12
2018-09-30T08:57:34.452Z,15.23
2018-09-30T09:02:37.560Z,15.43
2018-09-30T09:07:40.644Z,15.56
2018-09-30T09:12:43.867Z,15.66
2018-09-30T09:17:46.943Z,15.74
2018-09-30T09:22:50.063Z,15.78
2018-09-30T09:27:53.128Z,15.92
2018-09-30T09:32:56.303Z,16.01
2018-09-30T09:37:59.427Z,16.20
2018-09-30T09:43:02.539Z,16.38
2018-09-30T09:48:06.032Z,16.41
2018-09-30T09:53:09.259Z,16.51
2018-09-30T09:58:12.427Z,16.67
2018-09-30T10:03:16.134Z,16.83
2018-09-30T10:08:19.342Z,16.97
2018-09-30T10:13:22.566Z,17.03
2018-09-30T10:18:25.716Z,17.11
2018-09-30T10:23:29.772Z,17.27
2018-09-30T10:28:32.898Z,17.40
2018-09-30T10:33:36.173Z,17.54
2018-09-30T10:38:39.332Z,17.67
2018-09-30T10:43:42.410Z,17.77
2018-09-30T10:48:45.527Z,17.80
2018-09-30T10:53:48.589Z,17.97
2018-09-30T10:58:51.774Z,18.15
2018-09-30T11:03:55.148Z,18.21
2018-09-30T11:08:58.269Z,18.31
2018-09-30T11:14:01.490Z,18.34
2018-09-30T11:19:04.764Z,18.46
2018-09-30T11:24:07.955Z,18.62
2018-09-30T11:29:11.057Z,18.80
2018-09-30T11:34:15.165Z,18.96
2018-09-30T11:44:59.733Z,19.16
2018-09-30T11:50:02.980Z,19.58
2018-09-30T11:55:06.320Z,19.84
2018-09-30T12:00:09.237Z,20.07
2018-09-30T12:05:12.348Z,20.67
2018-09-30T12:10:15.448Z,20.89
2018-09-30T12:15:18.564Z,20.94
2018-09-30T12:20:21.691Z,21.01
2018-09-30T12:25:24.839Z,21.21
2018-09-30T12:30:28.043Z,21.29
2018-09-30T12:35:31.345Z,21.57
2018-09-30T12:40:35.554Z,21.76
2018-09-30T12:45:38.656Z,21.86
2018-09-30T12:50:41.726Z,21.73
2018-09-30T12:55:44.828Z,21.70
2018-09-30T13:00:47.969Z,21.66
2018-09-30T13:05:51.231Z,21.38
2018-09-30T13:10:54.306Z,21.48
2018-09-30T13:15:57.412Z,21.67
2018-09-30T13:21:00.937Z,21.76
2018-09-30T13:26:04.052Z,21.77
2018-09-30T13:31:07.194Z,21.79
2018-09-30T13:36:10.364Z,21.78
2018-09-30T13:41:13.645Z,21.65
2018-09-30T13:46:16.744Z,21.68
2018-09-30T13:51:19.921Z,21.76
2018-09-30T13:56:22.947Z,21.87
2018-09-30T14:01:26.060Z,21.82
2018-09-30T14:06:29.160Z,21.79
2018-09-30T14:11:32.240Z,21.73
2018-09-30T14:16:35.362Z,21.53
2018-09-30T14:21:38.447Z,21.41
2018-09-30T14:26:41.543Z,21.67
2018-09-30T14:31:44.661Z,21.59
2018-09-30T14:36:47.752Z,21.67
2018-09-30T14:41:50.836Z,21.89
2018-09-30T14:46:53.924Z,21.56
2018-09-30T14:51:57.003Z,21.39
2018-09-30T14:57:00.101Z,21.09
2018-09-30T15:02:03.176Z,20.91
2018-09-30T15:07:06.294Z,20.86
2018-09-30T15:12:09.419Z,20.73
2018-09-30T15:17:12.523Z,20.65
2018-09-30T15:22:15.604Z,20.52
2018-09-30T15:27:18.667Z,20.53
2018-09-30T15:32:21.829Z,20.35
2018-09-30T15:37:25.163Z,20.10
2018-09-30T15:42:28.383Z,19.92
2018-09-30T15:47:31.454Z,19.74
2018-09-30T15:52:34.845Z,19.48
2018-09-30T15:57:37.944Z,19.23
2018-09-30T16:02:41.120Z,19.08
2018-09-30T16:07:44.242Z,18.85
2018-09-30T16:12:47.519Z,18.69
2018-09-30T16:17:50.663Z,18.53
2018-09-30T16:22:53.871Z,18.49
2018-09-30T16:27:57.007Z,18.47
2018-09-30T16:33:00.116Z,18.37
2018-09-30T16:38:03.336Z,18.28
2018-09-30T16:43:06.642Z,18.23
2018-09-30T16:48:09.966Z,18.16
2018-09-30T16:53:13.284Z,18.08
2018-09-30T16:58:16.395Z,17.98
2018-09-30T17:03:19.540Z,17.89
2018-09-30T17:08:22.655Z,17.73
2018-09-30T17:13:25.784Z,17.62
2018-09-30T17:18:28.997Z,17.52
2018-09-30T17:23:32.205Z,17.48
2018-09-30T17:28:35.705Z,17.40
2018-09-30T17:33:38.829Z,17.32
2018-09-30T17:38:41.949Z,17.30
2018-09-30T17:43:45.131Z,17.25
2018-09-30T17:48:48.762Z,17.20
2018-09-30T17:53:52.163Z,17.17
2018-09-30T17:58:56.716Z,17.11
2018-09-30T18:04:00.421Z,17.05
2018-09-30T18:09:07.061Z,16.97
2018-09-30T18:14:10.987Z,16.91
2018-09-30T18:24:59.937Z,16.82
2018-09-30T18:30:03.472Z,16.73
2018-09-30T18:35:06.850Z,16.64
2018-09-30T18:40:11.151Z,16.56
2018-09-30T18:45:14.713Z,16.47
2018-09-30T18:50:17.893Z,16.38
2018-09-30T18:55:21.020Z,16.26
2018-09-30T19:00:24.277Z,16.11
2018-09-30T19:05:27.744Z,16.00
2018-09-30T19:10:30.891Z,15.95
2018-09-30T19:15:34.027Z,15.80
2018-09-30T19:20:37.294Z,15.65
2018-09-30T19:25:40.471Z,15.51
2018-09-30T19:30:43.756Z,15.40
2018-09-30T19:35:46.913Z,15.28
2018-09-30T19:40:50.091Z,15.18
2018-09-30T19:45:53.222Z,15.13
2018-09-30T19:50:56.322Z,14.96
2018-09-30T19:55:59.388Z,14.87
2018-09-30T20:01:02.569Z,14.80
2018-09-30T20:06:05.699Z,14.74
2018-09-30T20:11:08.771Z,14.69
2018-09-30T20:16:11.941Z,14.66
2018-09-30T20:21:15.128Z,14.70
2018-09-30T20:26:18.416Z,14.77
2018-09-30T20:31:21.533Z,14.73
2018-09-30T20:36:24.627Z,14.68
2018-09-30T20:41:28.910Z,14.68
2018-09-30T20:46:32.104Z,14.66
2018-09-30T20:51:35.643Z,14.62
2018-09-30T20:56:38.800Z,14.59
2018-09-30T21:01:41.923Z,14.55
2018-09-30T21:06:45.429Z,14.51
2018-09-30T21:11:48.639Z,14.47
2018-09-30T21:16:51.736Z,14.44
2018-09-30T21:21:54.794Z,14.45
2018-09-30T21:26:57.926Z,14.38
2018-09-30T21:32:01.166Z,14.29
2018-09-30T21:37:04.486Z,14.13
2018-09-30T21:42:07.624Z,13.99
2018-09-30T21:47:11.739Z,13.93
2018-09-30T21:52:14.831Z,13.97
2018-09-30T21:57:17.976Z,14.11
2018-09-30T22:02:21.147Z,14.15
2018-09-30T22:07:24.302Z,14.10
2018-09-30T22:12:27.407Z,14.06
2018-09-30T22:17:30.601Z,14.01
2018-09-30T22:22:33.707Z,14.00
2018-09-30T22:27:36.840Z,14.10
2018-09-30T22:32:39.933Z,14.17
2018-09-30T22:37:43.075Z,14.28
2018-09-30T22:42:46.159Z,14.35
2018-09-30T22:47:49.239Z,14.39
2018-09-30T22:52:52.304Z,14.44
2018-09-30T22:57:55.437Z,14.48
2018-09-30T23:02:58.631Z,14.51
2018-09-30T23:08:01.815Z,14.52
2018-09-30T23:13:05.174Z,14.48
2018-09-30T23:18:08.384Z,14.48
2018-09-30T23:23:11.530Z,14.48
2018-09-30T23:28:14.655Z,14.42
2018-09-30T23:33:17.823Z,14.37
2018-09-30T23:38:20.923Z,14.32
2018-09-30T23:43:24.028Z,14.24
2018-09-30T23:48:27.158Z,14.14
2018-09-30T23:53:30.267Z,14.05
2018-09-30T23:58:33.402Z,13.93
